Terminal Aerodrome Forecast
Issued by NWS

Home | Current Version | Previous Version | Text Only | Print | Product List | Glossary On
Versions: 1 2 3 4 5 6 7 8 9 10 11 12 13 14
000
FTUS42 TJSJ 021124
TAFJMZ
TAF
TJMZ 021124Z 0212/0312 VRB05KT P6SM FEW030 SCT060
     FM021500 27010KT P6SM VCSH SCT030
     FM021900 27010KT P6SM VCTS BKN030CB
     FM030000 VRB05KT P6SM SCT030
      AMD NOT SKED TIL 021600=

USA.gov is the U.S. government's official web portal to all federal, state and local government web resources and services.